RYR9AQ LPPR-ELLX
Flight info
| Callsign | RYR9AQ |
|---|---|
| Flight time | N/A |
| Altitude | 34000 |
| Route | BELDU DCT ADORO DCT FITSE DCT DGO L176 LUSEM DCT LULUT DCT ADABI DCT BOKNO DCT DIBES DCT VIQAQ DCT TSU UM163 LEQOS DCT CTL DCT MMD |
| Aircraft | B738/M-SDE2E3FGHIRWXY/LB1 |
Departure
| Time | 2026-05-04 12:27 |
|---|---|
| Airport | Francisco de Sá Carneiro Airport (LPPR) |
Arrival
| Time | N/A |
|---|---|
| Airport | Luxembourg-Findel International Airport (ELLX) |
| Time | Latitude | Longitude | Altitude | Speed | Heading |
|---|---|---|---|---|---|
| 2026-05-04 12:04 | 41.23773 | -8.67300 | 244 ft | 0 kts | 49° |
| 2026-05-04 12:17 | 41.23764 | -8.67313 | 244 ft | 4 kts | 49° |
| 2026-05-04 12:17 | 41.23746 | -8.67340 | 242 ft | 4 kts | 49° |
| 2026-05-04 12:17 | 41.23732 | -8.67362 | 241 ft | 4 kts | 56° |
| 2026-05-04 12:17 | 41.23725 | -8.67392 | 240 ft | 4 kts | 105° |
| 2026-05-04 12:18 | 41.23734 | -8.67417 | 239 ft | 1 kts | 126° |
| 2026-05-04 12:21 | 41.23727 | -8.67412 | 239 ft | 3 kts | 156° |
| 2026-05-04 12:21 | 41.23680 | -8.67417 | 238 ft | 11 kts | 191° |
| 2026-05-04 12:21 | 41.23625 | -8.67524 | 233 ft | 15 kts | 259° |
| 2026-05-04 12:21 | 41.23606 | -8.67644 | 232 ft | 13 kts | 255° |
| 2026-05-04 12:22 | 41.23590 | -8.67758 | 232 ft | 13 kts | 262° |
| 2026-05-04 12:22 | 41.23638 | -8.67821 | 230 ft | 0 kts | 351° |
| 2026-05-04 12:26 | 41.23639 | -8.67822 | 230 ft | 2 kts | 351° |
| 2026-05-04 12:26 | 41.23867 | -8.67880 | 222 ft | 71 kts | 348° |
| 2026-05-04 12:26 | 41.24589 | -8.68065 | 209 ft | 137 kts | 349° |
| 2026-05-04 12:26 | 41.25673 | -8.68359 | 435 ft | 173 kts | 346° |
| 2026-05-04 12:27 | 41.26927 | -8.68678 | 1033 ft | 193 kts | 346° |
| 2026-05-04 12:27 | 41.28274 | -8.69037 | 1735 ft | 195 kts | 346° |
| 2026-05-04 12:27 | 41.29638 | -8.69401 | 2185 ft | 210 kts | 345° |
| 2026-05-04 12:27 | 41.31123 | -8.69804 | 2497 ft | 223 kts | 345° |
| 2026-05-04 12:28 | 41.32663 | -8.70227 | 3021 ft | 228 kts | 345° |
| 2026-05-04 12:28 | 41.34283 | -8.70680 | 3252 ft | 247 kts | 345° |
| 2026-05-04 12:28 | 41.35988 | -8.71158 | 3883 ft | 253 kts | 345° |
| 2026-05-04 12:28 | 41.37699 | -8.71638 | 4733 ft | 253 kts | 346° |
| 2026-05-04 12:29 | 41.39481 | -8.71703 | 5367 ft | 262 kts | 11° |
| 2026-05-04 12:29 | 41.41170 | -8.70698 | 6029 ft | 273 kts | 33° |
| 2026-05-04 12:29 | 41.42606 | -8.69054 | 6707 ft | 280 kts | 48° |
| 2026-05-04 12:29 | 41.43437 | -8.66698 | 7424 ft | 285 kts | 76° |
| 2026-05-04 12:30 | 41.43797 | -8.64094 | 8114 ft | 289 kts | 78° |
| 2026-05-04 12:30 | 41.44156 | -8.61432 | 8717 ft | 294 kts | 78° |
| 2026-05-04 12:30 | 41.44354 | -8.58708 | 9413 ft | 297 kts | 94° |
| 2026-05-04 12:30 | 41.44088 | -8.55975 | 10158 ft | 299 kts | 98° |
| 2026-05-04 12:31 | 41.43772 | -8.53181 | 10473 ft | 315 kts | 98° |
| 2026-05-04 12:31 | 41.43440 | -8.50192 | 10656 ft | 336 kts | 98° |
| 2026-05-04 12:31 | 41.43097 | -8.47017 | 10802 ft | 356 kts | 97° |
| 2026-05-04 12:31 | 41.42746 | -8.43665 | 11043 ft | 371 kts | 97° |
| 2026-05-04 12:32 | 41.42392 | -8.40233 | 11546 ft | 377 kts | 97° |
| 2026-05-04 12:32 | 41.41679 | -8.33248 | 12802 ft | 384 kts | 97° |
| 2026-05-04 12:32 | 41.41314 | -8.29690 | 13412 ft | 390 kts | 97° |
| 2026-05-04 12:33 | 41.40949 | -8.26139 | 14010 ft | 394 kts | 97° |
| 2026-05-04 12:33 | 41.40577 | -8.22501 | 14642 ft | 397 kts | 98° |
| 2026-05-04 12:33 | 41.40200 | -8.18839 | 15208 ft | 401 kts | 98° |
| 2026-05-04 12:33 | 41.39819 | -8.15137 | 15790 ft | 406 kts | 98° |
| 2026-05-04 12:34 | 41.39433 | -8.11394 | 16346 ft | 411 kts | 98° |
| 2026-05-04 12:34 | 41.39040 | -8.07598 | 16877 ft | 416 kts | 98° |
| 2026-05-04 12:34 | 41.38641 | -8.03759 | 17438 ft | 421 kts | 98° |
| 2026-05-04 12:34 | 41.38374 | -8.01192 | 17804 ft | 423 kts | 98° |
| 2026-05-04 12:35 | 41.37965 | -7.97282 | 18338 ft | 428 kts | 98° |
| 2026-05-04 12:35 | 41.37552 | -7.93339 | 18811 ft | 432 kts | 98° |
| 2026-05-04 12:35 | 41.37133 | -7.89355 | 19304 ft | 436 kts | 99° |
| 2026-05-04 12:35 | 41.36710 | -7.85342 | 19801 ft | 439 kts | 99° |
| 2026-05-04 12:36 | 41.36283 | -7.81310 | 20326 ft | 442 kts | 99° |
| 2026-05-04 12:36 | 41.35908 | -7.77236 | 20791 ft | 446 kts | 93° |
| 2026-05-04 12:36 | 41.36069 | -7.73090 | 21245 ft | 450 kts | 83° |
| 2026-05-04 12:36 | 41.36457 | -7.68946 | 21718 ft | 453 kts | 82° |
| 2026-05-04 12:37 | 41.36894 | -7.64767 | 22163 ft | 457 kts | 82° |
| 2026-05-04 12:37 | 41.37331 | -7.60565 | 22598 ft | 460 kts | 82° |
| 2026-05-04 12:37 | 41.37748 | -7.56375 | 23052 ft | 462 kts | 83° |
| 2026-05-04 12:37 | 41.38150 | -7.52115 | 23523 ft | 465 kts | 83° |
| 2026-05-04 12:38 | 41.38538 | -7.47820 | 23873 ft | 469 kts | 83° |
| 2026-05-04 12:38 | 41.38916 | -7.43499 | 24209 ft | 471 kts | 84° |
| 2026-05-04 12:38 | 41.39290 | -7.39153 | 24585 ft | 474 kts | 84° |
| 2026-05-04 12:38 | 41.39663 | -7.34774 | 24938 ft | 476 kts | 84° |
| 2026-05-04 12:39 | 41.40037 | -7.30379 | 25281 ft | 479 kts | 84° |
| 2026-05-04 12:39 | 41.40410 | -7.25964 | 25614 ft | 482 kts | 84° |
| 2026-05-04 12:39 | 41.40787 | -7.21513 | 25958 ft | 484 kts | 84° |
| 2026-05-04 12:39 | 41.41163 | -7.17046 | 26297 ft | 486 kts | 84° |
| 2026-05-04 12:40 | 41.41539 | -7.12562 | 26629 ft | 489 kts | 84° |
| 2026-05-04 12:40 | 41.41917 | -7.08037 | 26947 ft | 491 kts | 84° |
| 2026-05-04 12:40 | 41.42294 | -7.03500 | 27250 ft | 494 kts | 84° |
| 2026-05-04 12:40 | 41.42666 | -6.98999 | 27550 ft | 496 kts | 84° |
| 2026-05-04 12:41 | 41.43044 | -6.94415 | 27835 ft | 498 kts | 84° |
| 2026-05-04 12:41 | 41.43420 | -6.89813 | 28111 ft | 501 kts | 84° |
| 2026-05-04 12:41 | 41.43797 | -6.85187 | 28373 ft | 503 kts | 84° |
| 2026-05-04 12:41 | 41.44173 | -6.80541 | 28664 ft | 505 kts | 84° |
| 2026-05-04 12:42 | 41.44549 | -6.75886 | 29069 ft | 504 kts | 84° |
| 2026-05-04 12:42 | 41.44922 | -6.71242 | 29511 ft | 502 kts | 84° |
| 2026-05-04 12:42 | 41.45291 | -6.66624 | 29909 ft | 501 kts | 84° |
| 2026-05-04 12:42 | 41.45659 | -6.61990 | 30231 ft | 502 kts | 84° |
| 2026-05-04 12:43 | 41.46024 | -6.57369 | 30525 ft | 501 kts | 84° |
| 2026-05-04 12:43 | 41.46387 | -6.52749 | 30802 ft | 502 kts | 84° |
| 2026-05-04 12:43 | 41.46749 | -6.48117 | 31064 ft | 503 kts | 84° |
| 2026-05-04 12:43 | 41.47109 | -6.43484 | 31386 ft | 502 kts | 84° |
| 2026-05-04 12:44 | 41.47468 | -6.38855 | 31772 ft | 500 kts | 84° |
| 2026-05-04 12:44 | 41.47822 | -6.34258 | 32089 ft | 499 kts | 84° |
| 2026-05-04 12:44 | 41.48220 | -6.29749 | 32320 ft | 500 kts | 80° |
| 2026-05-04 12:44 | 41.49026 | -6.25234 | 32533 ft | 501 kts | 70° |
| 2026-05-04 12:45 | 41.50286 | -6.20918 | 32853 ft | 499 kts | 66° |
| 2026-05-04 12:45 | 41.51626 | -6.16652 | 33178 ft | 497 kts | 65° |
| 2026-05-04 12:45 | 41.52967 | -6.12409 | 33467 ft | 497 kts | 66° |
| 2026-05-04 12:45 | 41.54297 | -6.08153 | 33710 ft | 497 kts | 66° |
| 2026-05-04 12:46 | 41.55614 | -6.03877 | 33989 ft | 497 kts | 67° |
| 2026-05-04 12:46 | 41.58203 | -5.95325 | 34000 ft | 501 kts | 67° |
| 2026-05-04 12:47 | 41.60787 | -5.86700 | 33989 ft | 497 kts | 67° |
| 2026-05-04 12:47 | 41.63343 | -5.78154 | 34018 ft | 494 kts | 67° |
| 2026-05-04 12:48 | 41.65892 | -5.69613 | 34011 ft | 494 kts | 68° |
| 2026-05-04 12:48 | 41.68432 | -5.61076 | 33990 ft | 493 kts | 68° |
| 2026-05-04 12:49 | 41.70964 | -5.52541 | 33994 ft | 493 kts | 68° |
| 2026-05-04 12:49 | 41.73466 | -5.44075 | 33998 ft | 492 kts | 68° |
| 2026-05-04 12:50 | 41.75974 | -5.35560 | 34001 ft | 492 kts | 68° |
| 2026-05-04 12:50 | 41.78476 | -5.27038 | 34003 ft | 491 kts | 68° |
| 2026-05-04 12:51 | 41.80975 | -5.18497 | 34000 ft | 492 kts | 69° |
| 2026-05-04 12:51 | 41.83465 | -5.09957 | 33999 ft | 493 kts | 69° |
| 2026-05-04 12:52 | 41.85959 | -5.01377 | 33991 ft | 494 kts | 69° |
| 2026-05-04 12:52 | 41.88450 | -4.92780 | 33994 ft | 495 kts | 69° |
| 2026-05-04 12:53 | 41.90921 | -4.84221 | 33991 ft | 495 kts | 69° |
| 2026-05-04 12:53 | 41.93406 | -4.75586 | 34009 ft | 495 kts | 69° |
| 2026-05-04 12:54 | 41.95882 | -4.66952 | 33998 ft | 496 kts | 69° |
| 2026-05-04 12:54 | 41.98357 | -4.58291 | 33992 ft | 496 kts | 69° |
| 2026-05-04 12:55 | 42.00822 | -4.49639 | 34008 ft | 495 kts | 69° |
| 2026-05-04 12:55 | 42.03276 | -4.40991 | 33992 ft | 495 kts | 69° |
| 2026-05-04 12:56 | 42.05728 | -4.32326 | 33997 ft | 494 kts | 69° |
| 2026-05-04 12:56 | 42.08166 | -4.23678 | 33990 ft | 494 kts | 69° |
| 2026-05-04 12:57 | 42.10593 | -4.15039 | 34004 ft | 493 kts | 69° |
| 2026-05-04 12:57 | 42.13012 | -4.06399 | 34019 ft | 493 kts | 70° |
| 2026-05-04 12:58 | 42.15410 | -3.97806 | 34001 ft | 492 kts | 70° |
| 2026-05-04 12:58 | 42.17813 | -3.89164 | 34002 ft | 492 kts | 70° |
| 2026-05-04 12:59 | 42.20204 | -3.80534 | 33982 ft | 491 kts | 70° |
| 2026-05-04 12:59 | 42.22590 | -3.71894 | 34030 ft | 491 kts | 70° |
| 2026-05-04 13:00 | 42.24967 | -3.63257 | 34020 ft | 491 kts | 70° |
| 2026-05-04 13:00 | 42.27339 | -3.54607 | 34032 ft | 491 kts | 70° |
| 2026-05-04 13:01 | 42.29689 | -3.46007 | 34028 ft | 492 kts | 70° |
| 2026-05-04 13:01 | 42.32052 | -3.37333 | 34020 ft | 492 kts | 71° |
| 2026-05-04 13:02 | 42.34407 | -3.28652 | 34007 ft | 492 kts | 71° |
| 2026-05-04 13:02 | 42.36764 | -3.19935 | 34023 ft | 493 kts | 71° |
| 2026-05-04 13:03 | 42.39110 | -3.11226 | 34008 ft | 493 kts | 71° |
| 2026-05-04 13:03 | 42.41449 | -3.02519 | 33985 ft | 492 kts | 72° |
| 2026-05-04 13:04 | 42.43794 | -2.93830 | 33995 ft | 492 kts | 69° |
| 2026-05-04 13:04 | 42.45340 | -2.89684 | 33990 ft | 493 kts | 58° |
| 2026-05-04 13:04 | 42.47323 | -2.85903 | 34006 ft | 493 kts | 50° |
| 2026-05-04 13:05 | 42.52222 | -2.79503 | 34014 ft | 492 kts | 40° |
| 2026-05-04 13:05 | 42.57407 | -2.73427 | 34006 ft | 492 kts | 40° |
| 2026-05-04 13:06 | 42.62561 | -2.67298 | 34018 ft | 493 kts | 41° |
| 2026-05-04 13:06 | 42.67694 | -2.61098 | 34018 ft | 494 kts | 42° |
| 2026-05-04 13:07 | 42.72819 | -2.54869 | 34020 ft | 495 kts | 42° |
| 2026-05-04 13:07 | 42.77963 | -2.48607 | 34027 ft | 497 kts | 42° |
| 2026-05-04 13:08 | 42.83121 | -2.42319 | 34018 ft | 498 kts | 42° |
| 2026-05-04 13:08 | 42.88282 | -2.36012 | 34020 ft | 499 kts | 42° |
| 2026-05-04 13:09 | 42.93420 | -2.29718 | 34017 ft | 500 kts | 42° |
| 2026-05-04 13:09 | 42.98584 | -2.23379 | 33996 ft | 499 kts | 43° |
| 2026-05-04 13:10 | 43.03742 | -2.17010 | 34013 ft | 500 kts | 43° |
| 2026-05-04 13:10 | 43.08903 | -2.10616 | 34025 ft | 500 kts | 43° |
| 2026-05-04 13:11 | 43.14069 | -2.04212 | 34015 ft | 501 kts | 43° |
| 2026-05-04 13:11 | 43.19231 | -1.97803 | 34017 ft | 500 kts | 43° |
| 2026-05-04 13:12 | 43.24387 | -1.91384 | 34022 ft | 500 kts | 43° |
| 2026-05-04 13:12 | 43.29543 | -1.84956 | 34016 ft | 500 kts | 42° |
| 2026-05-04 13:13 | 43.35299 | -1.79573 | 34039 ft | 503 kts | 27° |
| 2026-05-04 13:13 | 43.41437 | -1.74867 | 34010 ft | 507 kts | 32° |
| 2026-05-04 13:14 | 43.47286 | -1.69536 | 34027 ft | 507 kts | 34° |
| 2026-05-04 13:14 | 43.53121 | -1.64071 | 34020 ft | 507 kts | 34° |
| 2026-05-04 13:15 | 43.58988 | -1.58674 | 34017 ft | 506 kts | 33° |
| 2026-05-04 13:15 | 43.64859 | -1.53333 | 34014 ft | 505 kts | 33° |
| 2026-05-04 13:16 | 43.70727 | -1.47998 | 33985 ft | 504 kts | 33° |
| 2026-05-04 13:16 | 43.76570 | -1.42668 | 33992 ft | 503 kts | 33° |
| 2026-05-04 13:17 | 43.82411 | -1.37322 | 33999 ft | 503 kts | 33° |
| 2026-05-04 13:17 | 43.88239 | -1.31974 | 33991 ft | 503 kts | 33° |
| 2026-05-04 13:18 | 43.94042 | -1.26637 | 33982 ft | 502 kts | 33° |
| 2026-05-04 13:18 | 43.99860 | -1.21272 | 33974 ft | 501 kts | 34° |
| 2026-05-04 13:19 | 44.05663 | -1.15909 | 33985 ft | 501 kts | 34° |
| 2026-05-04 13:19 | 44.11457 | -1.10542 | 33964 ft | 500 kts | 34° |
| 2026-05-04 13:20 | 44.17246 | -1.05166 | 33952 ft | 500 kts | 34° |
| 2026-05-04 13:20 | 44.22053 | -1.00693 | 33959 ft | 500 kts | 34° |
| 2026-05-04 13:21 | 44.27842 | -0.95293 | 33963 ft | 501 kts | 34° |
| 2026-05-04 13:21 | 44.33637 | -0.89874 | 33944 ft | 502 kts | 34° |
| 2026-05-04 13:22 | 44.39451 | -0.84458 | 33941 ft | 502 kts | 32° |
| 2026-05-04 13:22 | 44.45708 | -0.80179 | 33953 ft | 501 kts | 22° |
| 2026-05-04 13:23 | 44.52145 | -0.76401 | 33925 ft | 501 kts | 22° |
| 2026-05-04 13:23 | 44.58422 | -0.72680 | 33944 ft | 501 kts | 22° |
| 2026-05-04 13:24 | 44.64834 | -0.68785 | 33944 ft | 502 kts | 23° |
| 2026-05-04 13:24 | 44.71226 | -0.64853 | 33940 ft | 501 kts | 23° |
| 2026-05-04 13:25 | 44.80775 | -0.58957 | 33937 ft | 501 kts | 23° |
| 2026-05-04 13:25 | 44.87155 | -0.55011 | 33946 ft | 501 kts | 23° |
| 2026-05-04 13:26 | 44.93545 | -0.51051 | 33934 ft | 501 kts | 23° |
| 2026-05-04 13:26 | 44.99927 | -0.47085 | 33936 ft | 501 kts | 23° |
| 2026-05-04 13:27 | 45.06305 | -0.43113 | 33917 ft | 500 kts | 23° |
| 2026-05-04 13:27 | 45.12675 | -0.39135 | 33916 ft | 500 kts | 23° |
| 2026-05-04 13:28 | 45.18994 | -0.35180 | 33917 ft | 499 kts | 23° |
| 2026-05-04 13:28 | 45.25339 | -0.31199 | 33926 ft | 498 kts | 24° |
| 2026-05-04 13:29 | 45.31674 | -0.27215 | 33918 ft | 497 kts | 24° |
| 2026-05-04 13:29 | 45.37988 | -0.23234 | 33933 ft | 496 kts | 24° |
| 2026-05-04 13:30 | 45.44307 | -0.19240 | 33922 ft | 497 kts | 24° |
| 2026-05-04 13:30 | 45.50625 | -0.15236 | 33935 ft | 496 kts | 24° |
| 2026-05-04 13:31 | 45.56921 | -0.11237 | 33932 ft | 495 kts | 24° |
| 2026-05-04 13:31 | 45.63203 | -0.07237 | 33937 ft | 493 kts | 24° |
| 2026-05-04 13:32 | 45.69467 | -0.03238 | 33938 ft | 493 kts | 24° |
| 2026-05-04 13:32 | 45.75680 | 0.00737 | 33909 ft | 492 kts | 24° |
| 2026-05-04 13:33 | 45.81922 | 0.04741 | 33928 ft | 491 kts | 24° |
| 2026-05-04 13:33 | 45.88152 | 0.08747 | 33933 ft | 490 kts | 24° |
| 2026-05-04 13:34 | 45.94381 | 0.12763 | 33935 ft | 490 kts | 24° |
| 2026-05-04 13:34 | 46.00616 | 0.16792 | 33923 ft | 493 kts | 25° |
| 2026-05-04 13:35 | 46.09998 | 0.22874 | 33925 ft | 493 kts | 25° |
| 2026-05-04 13:36 | 46.16259 | 0.26946 | 33917 ft | 494 kts | 25° |
| 2026-05-04 13:36 | 46.22525 | 0.31031 | 33937 ft | 495 kts | 25° |
| 2026-05-04 13:37 | 46.28804 | 0.35135 | 33914 ft | 495 kts | 25° |
| 2026-05-04 13:37 | 46.35082 | 0.39248 | 33929 ft | 495 kts | 25° |
| 2026-05-04 13:38 | 46.41363 | 0.43375 | 33921 ft | 495 kts | 25° |
| 2026-05-04 13:38 | 46.47621 | 0.47497 | 33932 ft | 494 kts | 25° |
| 2026-05-04 13:39 | 46.53869 | 0.51622 | 33936 ft | 493 kts | 25° |
| 2026-05-04 13:39 | 46.60327 | 0.54709 | 33950 ft | 491 kts | 12° |
| 2026-05-04 13:40 | 46.67015 | 0.56795 | 33943 ft | 491 kts | 11° |
| 2026-05-04 13:40 | 46.73713 | 0.58904 | 33938 ft | 493 kts | 12° |
| 2026-05-04 13:41 | 46.80434 | 0.61110 | 33930 ft | 495 kts | 12° |
| 2026-05-04 13:41 | 46.87144 | 0.63345 | 33920 ft | 494 kts | 12° |
| 2026-05-04 13:42 | 46.97131 | 0.66672 | 33924 ft | 491 kts | 12° |
| 2026-05-04 13:42 | 47.03758 | 0.69051 | 33917 ft | 490 kts | 19° |
| 2026-05-04 13:43 | 47.09824 | 0.73486 | 33932 ft | 487 kts | 32° |
| 2026-05-04 13:43 | 47.15568 | 0.78749 | 33923 ft | 486 kts | 33° |
| 2026-05-04 13:44 | 47.21332 | 0.83993 | 33912 ft | 486 kts | 32° |
| 2026-05-04 13:44 | 47.27105 | 0.89173 | 33933 ft | 486 kts | 32° |
| 2026-05-04 13:45 | 47.32887 | 0.94351 | 33912 ft | 487 kts | 32° |
| 2026-05-04 13:45 | 47.38676 | 0.99551 | 33935 ft | 487 kts | 32° |
| 2026-05-04 13:46 | 47.44470 | 1.04775 | 33923 ft | 488 kts | 32° |
| 2026-05-04 13:46 | 47.50229 | 1.09979 | 33927 ft | 488 kts | 32° |
| 2026-05-04 13:47 | 47.56162 | 1.14875 | 33919 ft | 489 kts | 28° |
| 2026-05-04 13:47 | 47.62197 | 1.19490 | 33932 ft | 488 kts | 28° |
| 2026-05-04 13:48 | 47.68223 | 1.24133 | 33923 ft | 488 kts | 28° |
| 2026-05-04 13:48 | 47.74219 | 1.28829 | 33918 ft | 486 kts | 28° |
| 2026-05-04 13:49 | 47.80192 | 1.33543 | 33928 ft | 486 kts | 29° |
| 2026-05-04 13:49 | 47.86158 | 1.38262 | 33932 ft | 485 kts | 29° |
| 2026-05-04 13:50 | 47.92116 | 1.42986 | 33933 ft | 485 kts | 29° |
| 2026-05-04 13:50 | 47.98077 | 1.47723 | 33936 ft | 485 kts | 29° |
| 2026-05-04 13:51 | 48.03993 | 1.52436 | 33939 ft | 484 kts | 29° |
| 2026-05-04 13:51 | 48.09940 | 1.57187 | 33939 ft | 485 kts | 29° |
| 2026-05-04 13:52 | 48.18870 | 1.64335 | 33937 ft | 485 kts | 29° |
| 2026-05-04 13:53 | 48.24839 | 1.69120 | 33950 ft | 489 kts | 29° |
| 2026-05-04 13:53 | 48.30881 | 1.73979 | 33927 ft | 495 kts | 29° |
| 2026-05-04 13:54 | 48.39971 | 1.81314 | 33938 ft | 500 kts | 30° |
| 2026-05-04 13:55 | 48.49188 | 1.88783 | 33940 ft | 501 kts | 30° |
| 2026-05-04 13:55 | 48.58396 | 1.96276 | 33957 ft | 500 kts | 30° |
| 2026-05-04 13:56 | 48.64506 | 2.01267 | 33965 ft | 499 kts | 30° |
| 2026-05-04 13:57 | 48.73082 | 2.08855 | 33958 ft | 494 kts | 44° |
| 2026-05-04 13:57 | 48.75414 | 2.12530 | 33985 ft | 489 kts | 55° |
| 2026-05-04 13:58 | 48.79773 | 2.26150 | 33961 ft | 478 kts | 73° |
| 2026-05-04 13:58 | 48.83407 | 2.40233 | 33963 ft | 478 kts | 72° |
| 2026-05-04 13:59 | 48.85890 | 2.49620 | 33971 ft | 479 kts | 72° |
| 2026-05-04 14:00 | 48.89610 | 2.63724 | 33934 ft | 479 kts | 72° |
| 2026-05-04 14:00 | 48.93308 | 2.77857 | 33963 ft | 480 kts | 73° |
| 2026-05-04 14:01 | 48.95759 | 2.87272 | 33969 ft | 482 kts | 73° |
| 2026-05-04 14:02 | 48.99457 | 3.01549 | 33958 ft | 483 kts | 73° |
| 2026-05-04 14:02 | 49.01910 | 3.11070 | 33946 ft | 482 kts | 73° |
| 2026-05-04 14:03 | 49.04357 | 3.20606 | 33973 ft | 482 kts | 73° |
| 2026-05-04 14:03 | 49.06791 | 3.30134 | 33964 ft | 482 kts | 73° |
| 2026-05-04 14:04 | 49.10411 | 3.44381 | 33972 ft | 482 kts | 73° |
| 2026-05-04 14:04 | 49.12828 | 3.53937 | 33960 ft | 483 kts | 73° |
| 2026-05-04 14:05 | 49.15800 | 3.68554 | 33970 ft | 478 kts | 81° |
| 2026-05-04 14:06 | 49.17379 | 3.78436 | 33977 ft | 478 kts | 81° |
| 2026-05-04 14:06 | 49.18176 | 3.83384 | 33748 ft | 482 kts | 81° |
| 2026-05-04 14:06 | 49.18992 | 3.88378 | 33111 ft | 484 kts | 80° |
| 2026-05-04 14:06 | 49.19819 | 3.93362 | 32436 ft | 483 kts | 80° |
| 2026-05-04 14:07 | 49.20370 | 3.96662 | 31977 ft | 484 kts | 80° |
| 2026-05-04 14:07 | 49.21476 | 4.03273 | 31019 ft | 485 kts | 80° |
| 2026-05-04 14:07 | 49.22310 | 4.08270 | 30295 ft | 486 kts | 80° |
| 2026-05-04 14:07 | 49.23145 | 4.13284 | 29457 ft | 487 kts | 80° |
| 2026-05-04 14:08 | 49.23978 | 4.18309 | 28589 ft | 487 kts | 80° |
| 2026-05-04 14:08 | 49.24540 | 4.21711 | 28014 ft | 487 kts | 80° |
| 2026-05-04 14:08 | 49.25369 | 4.26740 | 27184 ft | 487 kts | 79° |
| 2026-05-04 14:08 | 49.26189 | 4.31729 | 26630 ft | 482 kts | 79° |
| 2026-05-04 14:09 | 49.27804 | 4.41591 | 25400 ft | 472 kts | 79° |
| 2026-05-04 14:09 | 49.28584 | 4.46380 | 24800 ft | 467 kts | 79° |
| 2026-05-04 14:10 | 49.30138 | 4.55973 | 23645 ft | 460 kts | 79° |
| 2026-05-04 14:10 | 49.30902 | 4.60712 | 22964 ft | 457 kts | 79° |
| 2026-05-04 14:10 | 49.31659 | 4.65416 | 22329 ft | 453 kts | 79° |
| 2026-05-04 14:10 | 49.32408 | 4.70085 | 21736 ft | 448 kts | 79° |
| 2026-05-04 14:11 | 49.33148 | 4.74706 | 21155 ft | 443 kts | 79° |
| 2026-05-04 14:11 | 49.34597 | 4.83803 | 20012 ft | 435 kts | 78° |
| 2026-05-04 14:11 | 49.35309 | 4.88292 | 19451 ft | 432 kts | 78° |
| 2026-05-04 14:12 | 49.36014 | 4.92751 | 18873 ft | 429 kts | 78° |
| 2026-05-04 14:12 | 49.36713 | 4.97179 | 18318 ft | 426 kts | 78° |
| 2026-05-04 14:12 | 49.38094 | 5.05958 | 17096 ft | 419 kts | 78° |
| 2026-05-04 14:13 | 49.38774 | 5.10297 | 16545 ft | 417 kts | 78° |
| 2026-05-04 14:13 | 49.39713 | 5.14502 | 15986 ft | 418 kts | 64° |
| 2026-05-04 14:13 | 49.41159 | 5.18361 | 15504 ft | 416 kts | 60° |
| 2026-05-04 14:13 | 49.42648 | 5.22149 | 14942 ft | 415 kts | 60° |
| 2026-05-04 14:14 | 49.44133 | 5.25949 | 14392 ft | 413 kts | 60° |
| 2026-05-04 14:14 | 49.47003 | 5.33470 | 13718 ft | 398 kts | 61° |
| 2026-05-04 14:14 | 49.48363 | 5.37112 | 13484 ft | 386 kts | 61° |
| 2026-05-04 14:15 | 49.51134 | 5.44207 | 13160 ft | 360 kts | 54° |
| 2026-05-04 14:15 | 49.53653 | 5.50546 | 12866 ft | 334 kts | 60° |
| 2026-05-04 14:16 | 49.55576 | 5.56778 | 12514 ft | 310 kts | 85° |
| 2026-05-04 14:16 | 49.55400 | 5.59955 | 12243 ft | 298 kts | 106° |
| 2026-05-04 14:17 | 49.57305 | 5.63949 | 11668 ft | 268 kts | 326° |
| 2026-05-04 14:17 | 49.58799 | 5.62419 | 11222 ft | 264 kts | 332° |
| 2026-05-04 14:17 | 49.62463 | 5.61024 | 10845 ft | 255 kts | 356° |
| 2026-05-04 14:18 | 49.64148 | 5.61554 | 10719 ft | 243 kts | 33° |
| 2026-05-04 14:18 | 49.65427 | 5.65613 | 10491 ft | 207 kts | 90° |
| 2026-05-04 14:19 | 49.65316 | 5.70404 | 8982 ft | 246 kts | 100° |
| 2026-05-04 14:19 | 49.64950 | 5.73135 | 7984 ft | 274 kts | 102° |
| 2026-05-04 14:19 | 49.64639 | 5.76049 | 7515 ft | 280 kts | 91° |
| 2026-05-04 14:19 | 49.65006 | 5.78919 | 7544 ft | 267 kts | 72° |
| 2026-05-04 14:20 | 49.65642 | 5.81547 | 7500 ft | 255 kts | 69° |
| 2026-05-04 14:20 | 49.66297 | 5.84068 | 7126 ft | 259 kts | 69° |